Terminal Aerodrome Forecast
Issued by NWS Wilmington, OH

Current Version | Previous Version | Graphics & Text | Print | Product List | Glossary On
Versions: 1 2 3 4 5 6 7 8 9 10 11 12 13 14 15 16 17
015
FTUS41 KILN 161736
TAFDAY
TAF
KDAY 161736Z 1618/1718 20006KT P6SM SCT040 BKN250
     FM170200 14005KT P6SM VCSH BKN080
     FM170900 14004KT P6SM BKN100
      TEMPO 1709/1712 5SM BR
     FM171500 20012G18KT P6SM VCSH BKN050=

USA.gov is the U.S. government's official web portal to all federal, state and local government web resources and services.